Time;durP1;ratioP1;P1;durP2;ratioP2;P2;SDS_P1;SDS_P2;PMS_P1;PMS_P2;Temp;Humidity;BMP_temperature;BMP_pressure;BME280_temperature;BME280_humidity;BME280_pressure;Samples;Min_cycle;Max_cycle;Signal;HPM_P1;HPM_P2
2021/09/09 00:01:16;;;;;;;;;;;;;;;27.52;41.39;101339.38;5117836;28;755;-42
2021/09/09 00:03:41;;;;;;;;;;;;;;;27.55;41.09;101332.75;5118340;28;870;-42
2021/09/09 00:06:06;;;;;;;;;;;;;;;27.63;41.13;101335.44;5118698;28;823;-44
2021/09/09 00:08:32;;;;;;;;;;;;;;;27.42;41.45;101339.53;5118356;28;1902;-43
2021/09/09 00:10:57;;;;;;;;;;;;;;;27.47;41.64;101336.31;5118353;28;779;-43
2021/09/09 00:13:22;;;;;;;;;;;;;;;27.54;41.45;101329.22;5118052;27;1004;-43
2021/09/09 00:15:48;;;;;;;;;;;;;;;27.55;41.24;101332.75;5117563;27;981;-44
2021/09/09 00:18:13;;;;;;;;;;;;;;;27.66;40.85;101335.09;5118301;28;758;-43
2021/09/09 00:20:38;;;;;;;;;;;;;;;27.61;41.05;101338.31;5119315;27;1608;-44
2021/09/09 00:23:03;;;;;;;;;;;;;;;27.50;41.67;101331.44;5137990;27;818;-44
2021/09/09 00:25:29;;;;;;;;;;;;;;;27.66;40.95;101323.47;5138678;27;745;-43
2021/09/09 00:27:54;;;;;;;;;;;;;;;27.64;41.26;101315.53;5138678;27;866;-43
2021/09/09 00:30:20;;;;;;;;;;;;;;;27.63;41.30;101314.69;5120507;27;1976;-43
2021/09/09 00:32:45;;;;;;;;;;;;;;;27.65;41.19;101317.19;5115484;28;811;-42
2021/09/09 00:35:10;;;;;;;;;;;;;;;27.67;41.23;101320.59;5117947;28;807;-42
2021/09/09 00:37:36;;;;;;;;;;;;;;;27.64;41.12;101318.22;5117346;28;744;-42
2021/09/09 00:40:01;;;;;;;;;;;;;;;27.51;41.52;101318.75;5117946;28;999;-42
2021/09/09 00:42:26;;;;;;;;;;;;;;;27.68;40.93;101316.88;5117935;28;755;-44
2021/09/09 00:44:52;;;;;;;;;;;;;;;27.68;40.87;101313.31;5116676;27;961;-43
2021/09/09 00:47:17;;;;;;;;;;;;;;;27.58;41.07;101325.16;5117752;28;830;-43
2021/09/09 00:49:42;;;;;;;;;;;;;;;27.46;40.16;101313.03;5117442;28;1978;-43
2021/09/09 00:52:08;;;;;;;;;;;;;;;27.38;40.18;101312.03;5116984;28;739;-43
2021/09/09 00:54:34;;;;;;;;;;;;;;;27.28;40.52;101308.66;5117477;28;827;-43
2021/09/09 00:57:00;;;;;;;;;;;;;;;27.41;40.10;101302.72;5117515;28;850;-43
2021/09/09 00:59:25;;;;;;;;;;;;;;;27.23;40.25;101306.47;5124828;27;941;-43
2021/09/09 01:01:51;;;;;;;;;;;;;;;27.31;40.47;101302.09;5138639;27;802;-43
2021/09/09 01:04:16;;;;;;;;;;;;;;;27.39;40.49;101302.91;5137758;27;885;-43
2021/09/09 01:06:42;;;;;;;;;;;;;;;27.57;40.44;101301.88;5136215;27;749;-43
2021/09/09 01:09:07;;;;;;;;;;;;;;;27.68;40.03;101303.38;5136694;27;1906;-43
2021/09/09 01:11:32;;;;;;;;;;;;;;;27.55;40.43;101312.00;5137709;27;771;-43
2021/09/09 01:14:08;;;;;;;;;;;;;;;27.58;40.68;101311.66;5131073;27;1003;-42
2021/09/09 01:16:33;;;;;;;;;;;;;;;27.65;40.29;101310.94;5117515;28;814;-42
2021/09/09 01:18:59;;;;;;;;;;;;;;;27.62;40.70;101309.44;5117127;28;755;-41
2021/09/09 01:21:24;;;;;;;;;;;;;;;27.67;40.23;101317.03;5124508;27;1577;-44
2021/09/09 01:23:49;;;;;;;;;;;;;;;27.62;40.61;101307.59;5136863;27;546;-43
2021/09/09 01:26:14;;;;;;;;;;;;;;;27.53;40.86;101311.31;5136494;27;813;-44
2021/09/09 01:28:40;;;;;;;;;;;;;;;27.53;40.85;101305.91;5133661;27;1914;-44
2021/09/09 01:31:06;;;;;;;;;;;;;;;27.61;40.64;101302.38;5117020;28;850;-44
2021/09/09 01:33:31;;;;;;;;;;;;;;;27.64;40.62;101293.91;5116216;28;995;-44
2021/09/09 01:35:56;;;;;;;;;;;;;;;27.66;40.63;101288.31;5116389;28;827;-44
2021/09/09 01:38:22;;;;;;;;;;;;;;;27.56;41.22;101288.53;5116942;28;966;-44
2021/09/09 01:40:47;;;;;;;;;;;;;;;27.55;40.76;101290.38;5116637;28;763;-44
2021/09/09 01:43:12;;;;;;;;;;;;;;;27.47;41.26;101280.44;5116330;28;921;-43
2021/09/09 01:45:38;;;;;;;;;;;;;;;27.45;41.02;101284.31;5116161;27;945;-44
2021/09/09 01:48:03;;;;;;;;;;;;;;;27.63;40.74;101282.25;5116395;28;1913;-44
2021/09/09 01:50:28;;;;;;;;;;;;;;;27.50;41.27;101276.53;5114961;28;858;-44
2021/09/09 01:52:54;;;;;;;;;;;;;;;27.60;41.13;101284.44;5116535;28;761;-44
2021/09/09 01:55:19;;;;;;;;;;;;;;;27.59;40.92;101283.59;5116472;28;865;-44
2021/09/09 01:57:44;;;;;;;;;;;;;;;27.61;40.67;101281.56;5116865;28;809;-43
2021/09/09 02:00:10;;;;;;;;;;;;;;;27.56;41.05;101283.94;5116088;27;969;-43
2021/09/09 02:02:35;;;;;;;;;;;;;;;27.57;40.91;101285.66;5116257;28;807;-44
2021/09/09 02:05:01;;;;;;;;;;;;;;;27.47;41.08;101291.25;5116739;28;782;-43
2021/09/09 02:07:26;;;;;;;;;;;;;;;27.65;40.81;101290.19;5116177;28;805;-44
2021/09/09 02:09:51;;;;;;;;;;;;;;;27.65;40.81;101289.31;5116755;28;1957;-44
2021/09/09 02:12:16;;;;;;;;;;;;;;;27.66;40.69;101294.56;5116643;28;813;-43
2021/09/09 02:14:42;;;;;;;;;;;;;;;27.55;41.20;101286.81;5115146;27;949;-43
2021/09/09 02:17:09;;;;;;;;;;;;;;;27.46;41.33;101292.25;5116499;28;767;-44
2021/09/09 02:19:34;;;;;;;;;;;;;;;27.57;40.19;101295.59;5116451;28;804;-44
2021/09/09 02:22:00;;;;;;;;;;;;;;;27.40;40.21;101298.34;5128862;28;1612;-44
2021/09/09 02:24:25;;;;;;;;;;;;;;;27.47;40.11;101293.94;5136865;27;782;-43
2021/09/09 02:26:50;;;;;;;;;;;;;;;27.46;39.97;101296.81;5137197;27;751;-44
2021/09/09 02:29:16;;;;;;;;;;;;;;;27.49;39.97;101286.50;5127737;27;1901;-44
2021/09/09 02:31:41;;;;;;;;;;;;;;;27.56;40.48;101297.44;5116329;28;857;-43
2021/09/09 02:34:06;;;;;;;;;;;;;;;27.57;40.30;101291.06;5116712;28;1016;-43
2021/09/09 02:36:32;;;;;;;;;;;;;;;27.48;40.67;101292.91;5116150;28;759;-44
2021/09/09 02:38:58;;;;;;;;;;;;;;;27.40;41.06;101292.94;5116027;28;811;-44
2021/09/09 02:41:23;;;;;;;;;;;;;;;27.50;40.52;101299.00;5115980;28;774;-44
2021/09/09 02:43:48;;;;;;;;;;;;;;;27.53;40.62;101296.97;5115341;27;1001;-44
2021/09/09 02:46:14;;;;;;;;;;;;;;;27.59;40.59;101302.50;5116468;28;782;-43
2021/09/09 02:48:39;;;;;;;;;;;;;;;27.61;40.48;101299.66;5115817;28;1913;-43
2021/09/09 02:51:04;;;;;;;;;;;;;;;27.55;40.81;101303.88;5116148;28;842;-44
2021/09/09 02:53:29;;;;;;;;;;;;;;;27.41;40.90;101300.00;5115804;28;823;-43
2021/09/09 02:55:55;;;;;;;;;;;;;;;27.43;41.04;101302.53;5116274;28;773;-43
2021/09/09 02:58:20;;;;;;;;;;;;;;;27.54;40.99;101304.91;5119394;27;965;-44
2021/09/09 03:00:45;;;;;;;;;;;;;;;27.44;40.92;101297.00;5119703;27;937;-43
2021/09/09 03:03:11;;;;;;;;;;;;;;;27.44;41.05;101298.84;5119686;28;751;-44
2021/09/09 03:05:36;;;;;;;;;;;;;;;27.51;40.82;101306.09;5119376;28;824;-43
2021/09/09 03:08:01;;;;;;;;;;;;;;;27.48;40.92;101302.88;5119495;28;739;-43
2021/09/09 03:10:27;;;;;;;;;;;;;;;27.39;41.49;101312.88;5119542;28;1909;-43
2021/09/09 03:12:52;;;;;;;;;;;;;;;27.43;41.11;101306.09;5119131;28;755;-43
2021/09/09 03:15:17;;;;;;;;;;;;;;;27.46;41.33;101305.75;5119422;27;957;-44
2021/09/09 03:17:42;;;;;;;;;;;;;;;26.81;38.37;101312.88;5119294;28;834;-45
2021/09/09 03:20:08;;;;;;;;;;;;;;;26.21;38.60;101313.69;5118929;28;759;-46
2021/09/09 03:22:33;;;;;;;;;;;;;;;26.12;38.54;101322.78;5136996;27;1636;-44
2021/09/09 03:24:59;;;;;;;;;;;;;;;26.04;38.70;101318.19;5139506;27;911;-46
2021/09/09 03:27:24;;;;;;;;;;;;;;;25.96;38.44;101320.84;5139970;27;786;-46
2021/09/09 03:29:50;;;;;;;;;;;;;;;26.00;38.07;101320.38;5127490;27;1910;-47
2021/09/09 03:32:15;;;;;;;;;;;;;;;25.83;37.28;101323.97;5118675;28;778;-47
2021/09/09 03:34:40;;;;;;;;;;;;;;;25.71;38.09;101316.16;5119233;28;818;-46
2021/09/09 03:37:06;;;;;;;;;;;;;;;25.55;37.77;101314.19;5119091;28;755;-46
2021/09/09 03:39:31;;;;;;;;;;;;;;;25.71;37.91;101312.63;5118791;28;806;-48
2021/09/09 03:41:56;;;;;;;;;;;;;;;25.58;38.07;101315.72;5119134;28;978;-44
2021/09/09 03:44:22;;;;;;;;;;;;;;;25.43;37.62;101311.75;5105292;28;1017;-45
2021/09/09 03:46:47;;;;;;;;;;;;;;;25.34;38.19;101307.31;5118265;28;843;-46
2021/09/09 03:49:12;;;;;;;;;;;;;;;25.54;37.78;101320.59;5132476;27;1977;-47
2021/09/09 03:51:38;;;;;;;;;;;;;;;25.69;38.02;101320.88;5139289;27;1133;-45
2021/09/09 03:54:03;;;;;;;;;;;;;;;25.65;38.14;101327.59;5138969;27;861;-46
2021/09/09 03:56:29;;;;;;;;;;;;;;;26.03;39.45;101327.28;5138037;27;1017;-40
2021/09/09 03:58:54;;;;;;;;;;;;;;;26.48;38.92;101327.13;5133166;27;882;-42
2021/09/09 04:01:19;;;;;;;;;;;;;;;26.59;38.48;101328.69;5118938;28;764;-37
2021/09/09 04:03:46;;;;;;;;;;;;;;;26.69;38.23;101328.53;5118531;28;818;-39
2021/09/09 04:06:12;;;;;;;;;;;;;;;26.75;38.83;101326.00;5118098;28;838;-42
2021/09/09 04:08:37;;;;;;;;;;;;;;;26.83;39.80;101325.16;5118477;28;1964;-42
2021/09/09 04:11:02;;;;;;;;;;;;;;;26.87;40.40;101318.44;5118047;28;846;-35
2021/09/09 04:13:27;;;;;;;;;;;;;;;26.81;40.01;101313.69;5117884;27;1000;-38
2021/09/09 04:15:53;;;;;;;;;;;;;;;27.05;39.51;101314.75;5118172;28;751;-39
2021/09/09 04:18:18;;;;;;;;;;;;;;;26.96;39.70;101318.44;5118490;28;806;-39
2021/09/09 04:20:43;;;;;;;;;;;;;;;27.01;39.59;101318.75;5119961;27;1621;-39
2021/09/09 04:23:09;;;;;;;;;;;;;;;27.17;39.17;101319.81;5138798;27;881;-39
2021/09/09 04:25:34;;;;;;;;;;;;;;;27.24;39.06;101318.94;5138500;27;747;-39
2021/09/09 04:27:59;;;;;;;;;;;;;;;27.36;38.51;101311.34;5138217;27;739;-39
2021/09/09 04:30:25;;;;;;;;;;;;;;;27.43;38.28;101311.50;5120295;27;1905;-40
2021/09/09 04:32:50;;;;;;;;;;;;;;;27.50;38.60;101308.97;5136661;27;834;-38
2021/09/09 04:35:15;;;;;;;;;;;;;;;27.54;38.58;101306.75;5135876;27;823;-38
2021/09/09 04:37:41;;;;;;;;;;;;;;;27.61;37.97;101305.88;5137880;27;803;-41
2021/09/09 04:40:07;;;;;;;;;;;;;;;27.67;37.61;101303.50;5138657;27;766;-38
2021/09/09 04:42:32;;;;;;;;;;;;;;;27.69;37.77;101301.53;5138152;27;794;-39
2021/09/09 04:44:57;;;;;;;;;;;;;;;27.73;37.88;101301.00;5123947;27;941;-38
2021/09/09 04:47:23;;;;;;;;;;;;;;;27.78;37.59;101313.16;5117648;28;823;-40
2021/09/09 04:49:48;;;;;;;;;;;;;;;27.80;37.04;101306.56;5123176;27;1978;-38
2021/09/09 04:52:13;;;;;;;;;;;;;;;27.85;36.99;101306.03;5138733;27;746;-38
2021/09/09 04:54:39;;;;;;;;;;;;;;;28.00;36.90;101314.25;5137835;27;755;-38
2021/09/09 04:57:04;;;;;;;;;;;;;;;27.94;37.10;101315.81;5137388;27;794;-39
2021/09/09 04:59:29;;;;;;;;;;;;;;;28.08;36.83;101302.53;5135939;27;974;-37
2021/09/09 05:01:55;;;;;;;;;;;;;;;28.10;36.66;101311.31;5137984;27;808;-38
2021/09/09 05:04:20;;;;;;;;;;;;;;;28.10;36.72;101314.88;5137393;27;819;-38
2021/09/09 05:06:48;;;;;;;;;;;;;;;28.13;36.39;101300.16;5138020;27;824;-38
2021/09/09 05:09:13;;;;;;;;;;;;;;;28.19;36.80;101307.59;5137842;27;1905;-38
2021/09/09 05:11:39;;;;;;;;;;;;;;;28.20;36.31;101313.81;5137479;27;806;-39
2021/09/09 05:14:04;;;;;;;;;;;;;;;28.22;36.22;101309.94;5130947;27;1003;-39
2021/09/09 05:16:30;;;;;;;;;;;;;;;28.23;36.59;101317.00;5133073;27;826;-39
2021/09/09 05:18:55;;;;;;;;;;;;;;;28.26;36.03;101315.81;5137022;27;967;-38
2021/09/09 05:21:23;;;;;;;;;;;;;;;28.31;36.14;101320.72;5137746;27;1553;-38
2021/09/09 05:23:49;;;;;;;;;;;;;;;28.31;36.38;101315.31;5137143;27;826;-37
2021/09/09 05:26:14;;;;;;;;;;;;;;;28.41;35.74;101313.22;5136004;27;1282;-39
2021/09/09 05:28:40;;;;;;;;;;;;;;;28.34;36.42;101315.78;5136065;27;1935;-38
2021/09/09 05:31:05;;;;;;;;;;;;;;;28.40;35.88;101316.97;5137814;27;747;-40
2021/09/09 05:33:31;;;;;;;;;;;;;;;28.41;36.00;101323.22;5137038;27;857;-38
2021/09/09 05:35:56;;;;;;;;;;;;;;;28.36;36.13;101321.06;5137618;27;939;-38
2021/09/09 05:38:21;;;;;;;;;;;;;;;28.33;36.03;101315.97;5137630;27;857;-41
2021/09/09 05:40:49;;;;;;;;;;;;;;;28.32;36.54;101316.97;5136901;27;762;-37
2021/09/09 05:43:15;;;;;;;;;;;;;;;28.39;36.30;101318.00;5137168;27;1480;-44
2021/09/09 05:45:41;;;;;;;;;;;;;;;28.48;36.12;101314.19;5117073;27;992;-38
2021/09/09 05:48:09;;;;;;;;;;;;;;;28.44;37.73;101309.34;5116263;28;1027;-40
2021/09/09 05:50:37;;;;;;;;;;;;;;;22.22;46.27;101303.31;5117175;28;854;-42
2021/09/09 05:53:02;;;;;;;;;;;;;;;19.69;50.92;101289.16;5116729;28;833;-40
2021/09/09 05:55:27;;;;;;;;;;;;;;;20.14;52.45;101282.16;5116158;28;787;-42
2021/09/09 05:57:53;;;;;;;;;;;;;;;20.01;53.82;101284.94;5116957;28;951;-40
2021/09/09 06:00:18;;;;;;;;;;;;;;;19.84;55.03;101289.78;5135184;28;954;-41
2021/09/09 06:02:46;;;;;;;;;;;;;;;19.80;55.74;101288.34;5136814;28;819;-39
2021/09/09 06:05:12;;;;;;;;;;;;;;;20.30;55.85;101284.47;5137465;27;782;-38
2021/09/09 06:07:40;;;;;;;;;;;;;;;23.44;47.12;101287.03;5136502;27;786;-38
2021/09/09 06:10:09;;;;;;;;;;;;;;;24.95;43.44;101287.00;5136729;27;1893;-39
2021/09/09 06:12:37;;;;;;;;;;;;;;;25.95;40.73;101282.25;5137138;27;869;-40
2021/09/09 06:15:04;;;;;;;;;;;;;;;26.28;40.19;101286.91;5121823;27;975;-40
2021/09/09 06:17:29;;;;;;;;;;;;;;;25.86;40.99;101216.69;5116167;28;814;-41
2021/09/09 06:19:54;;;;;;;;;;;;;;;22.04;49.71;101278.16;5116393;28;897;-40
2021/09/09 06:22:20;;;;;;;;;;;;;;;20.50;53.98;101277.47;5131943;28;1641;-39
2021/09/09 06:24:48;;;;;;;;;;;;;;;20.03;55.77;101281.22;5136871;27;786;-40
2021/09/09 06:27:13;;;;;;;;;;;;;;;19.81;56.36;101290.03;5137410;27;806;-37
2021/09/09 06:29:38;;;;;;;;;;;;;;;19.76;56.33;101286.88;5125051;27;1956;-39
2021/09/09 06:32:04;;;;;;;;;;;;;;;19.41;57.33;101283.31;5118811;28;798;-38
2021/09/09 06:34:31;;;;;;;;;;;;;;;19.24;57.90;101280.09;5118486;28;1093;-39
2021/09/09 06:36:59;;;;;;;;;;;;;;;22.48;50.11;101284.06;5120021;28;828;-40
2021/09/09 06:39:24;;;;;;;;;;;;;;;24.31;44.96;101286.00;5119954;28;790;-38
2021/09/09 06:41:50;;;;;;;;;;;;;;;24.99;43.33;101280.28;5120156;28;763;-41
2021/09/09 06:44:15;;;;;;;;;;;;;;;25.28;42.38;101287.25;5119689;27;1012;-38
2021/09/09 06:46:41;;;;;;;;;;;;;;;20.68;53.15;101291.19;5119685;27;751;-41
2021/09/09 06:49:09;;;;;;;;;;;;;;;19.94;57.00;101277.41;5119102;28;1918;-39
2021/09/09 06:51:35;;;;;;;;;;;;;;;20.12;58.89;101278.78;5120370;28;751;-39
2021/09/09 06:54:00;;;;;;;;;;;;;;;23.45;48.81;101287.91;5119639;28;747;-40
2021/09/09 06:56:28;;;;;;;;;;;;;;;24.80;45.13;101278.59;5119863;28;760;-40
2021/09/09 06:58:54;;;;;;;;;;;;;;;25.35;43.43;101274.00;5119121;27;984;-39
2021/09/09 07:01:19;;;;;;;;;;;;;;;25.75;43.00;101285.22;5129936;27;1055;-40
2021/09/09 07:03:44;;;;;;;;;;;;;;;26.01;42.62;101273.50;5140034;27;1285;-40
2021/09/09 07:06:10;;;;;;;;;;;;;;;26.24;42.41;101272.09;5139129;27;759;-39
2021/09/09 07:08:35;;;;;;;;;;;;;;;26.45;41.69;101279.75;5139922;27;1905;-39
2021/09/09 07:11:00;;;;;;;;;;;;;;;26.63;41.50;101271.50;5139794;27;747;-40
2021/09/09 07:13:28;;;;;;;;;;;;;;;26.74;42.06;101278.41;5138897;27;940;-40
2021/09/09 07:15:57;;;;;;;;;;;;;;;26.83;42.08;101273.88;5119664;28;759;-40
2021/09/09 07:18:23;;;;;;;;;;;;;;;22.47;52.96;101268.94;5136015;27;783;-39
2021/09/09 07:20:49;;;;;;;;;;;;;;;22.72;55.44;101274.78;5140050;27;1622;-40
2021/09/09 07:23:14;;;;;;;;;;;;;;;25.32;46.34;101277.00;5139628;27;818;-40
2021/09/09 07:25:39;;;;;;;;;;;;;;;26.13;44.25;101278.59;5139165;27;751;-39
2021/09/09 07:28:04;;;;;;;;;;;;;;;26.52;43.96;101272.69;5139789;27;771;-37
2021/09/09 07:30:30;;;;;;;;;;;;;;;22.48;52.96;101273.34;5132779;27;1969;-38
2021/09/09 07:32:55;;;;;;;;;;;;;;;23.71;52.08;101279.19;5139560;27;746;-39
2021/09/09 07:35:20;;;;;;;;;;;;;;;25.70;45.29;101276.75;5140415;27;773;-38
2021/09/09 07:37:46;;;;;;;;;;;;;;;23.23;50.62;101276.47;5139365;27;802;-38
2021/09/09 07:40:12;;;;;;;;;;;;;;;22.04;56.89;101278.16;5138986;27;854;-39
2021/09/09 07:42:37;;;;;;;;;;;;;;;24.91;47.83;101275.69;5139265;27;774;-39
2021/09/09 07:45:04;;;;;;;;;;;;;;;26.05;44.62;101282.13;5124567;27;952;-39
2021/09/09 07:47:30;;;;;;;;;;;;;;;21.74;54.88;101286.03;5119025;28;790;-38
2021/09/09 07:49:55;;;;;;;;;;;;;;;24.41;49.51;101277.88;5117959;28;1914;-39
2021/09/09 07:52:21;;;;;;;;;;;;;;;25.87;44.93;101290.31;5118715;28;790;-40
2021/09/09 07:54:46;;;;;;;;;;;;;;;26.39;43.82;101296.59;5118634;28;806;-39
2021/09/09 07:57:11;;;;;;;;;;;;;;;22.30;53.82;101291.06;5118755;28;747;-39
2021/09/09 07:59:37;;;;;;;;;;;;;;;22.65;55.64;101294.25;5118141;27;1025;-38
2021/09/09 08:02:02;;;;;;;;;;;;;;;25.39;46.49;101293.38;5118542;28;747;-39
2021/09/09 08:04:27;;;;;;;;;;;;;;;24.35;47.28;101286.56;5118213;28;897;-38
2021/09/09 08:06:53;;;;;;;;;;;;;;;21.93;55.14;101285.31;5118593;28;858;-38
2021/09/09 08:09:18;;;;;;;;;;;;;;;23.28;53.63;101284.94;5117967;28;1979;-38
2021/09/09 08:11:43;;;;;;;;;;;;;;;25.55;45.96;101282.72;5118427;28;798;-38
2021/09/09 08:14:08;;;;;;;;;;;;;;;22.50;55.51;101283.91;5118035;27;1000;-38
2021/09/09 08:16:34;;;;;;;;;;;;;;;25.14;47.16;101277.06;5118035;28;917;-38
2021/09/09 08:18:59;;;;;;;;;;;;;;;23.08;51.12;101279.59;5118271;27;822;-41
2021/09/09 08:21:24;;;;;;;;;;;;;;;21.75;55.55;101272.50;5126053;27;1621;-38
2021/09/09 08:23:50;;;;;;;;;;;;;;;24.44;49.86;101280.25;5138532;27;866;-38
2021/09/09 08:26:15;;;;;;;;;;;;;;;22.95;51.75;101289.75;5138560;27;783;-39
2021/09/09 08:28:40;;;;;;;;;;;;;;;22.78;55.54;101283.25;5134071;27;1970;-38
2021/09/09 08:31:06;;;;;;;;;;;;;;;25.39;46.61;101279.91;5117998;28;779;-38
2021/09/09 08:33:31;;;;;;;;;;;;;;;22.30;53.25;101274.97;5117626;28;838;-37
2021/09/09 08:35:57;;;;;;;;;;;;;;;23.47;52.82;101276.00;5118252;28;831;-39
2021/09/09 08:38:22;;;;;;;;;;;;;;;25.59;45.65;101282.41;5117656;28;854;-39
2021/09/09 08:40:49;;;;;;;;;;;;;;;22.12;53.71;101267.63;5117698;28;790;-39
2021/09/09 08:43:14;;;;;;;;;;;;;;;24.22;50.08;101276.16;5117673;28;970;-38
2021/09/09 08:45:40;;;;;;;;;;;;;;;25.40;44.82;101279.75;5117305;27;997;-38
2021/09/09 08:48:05;;;;;;;;;;;;;;;22.39;54.94;101266.97;5118032;28;1157;-39
2021/09/09 08:50:31;;;;;;;;;;;;;;;25.01;47.18;101267.53;5117546;28;1971;-39
2021/09/09 08:52:58;;;;;;;;;;;;;;;23.18;49.70;101265.31;5117067;28;791;-40
2021/09/09 08:55:23;;;;;;;;;;;;;;;22.78;54.77;101257.28;5115716;28;755;-39
2021/09/09 08:57:48;;;;;;;;;;;;;;;25.52;45.67;101258.78;5117961;28;762;-41
2021/09/09 09:00:14;;;;;;;;;;;;;;;22.27;52.92;101258.19;5119742;27;1015;-39
2021/09/09 09:02:46;;;;;;;;;;;;;;;24.56;48.71;101245.06;5138179;27;755;-40
2021/09/09 09:05:11;;;;;;;;;;;;;;;23.09;50.21;101250.91;5138391;27;799;-45
2021/09/09 09:07:36;;;;;;;;;;;;;;;23.10;53.85;101249.94;5137348;27;751;-39
2021/09/09 09:10:06;;;;;;;;;;;;;;;25.56;45.30;101260.16;5137951;27;1948;-42
2021/09/09 09:12:44;;;;;;;;;;;;;;;24.34;46.68;101263.34;5137711;27;798;-40
2021/09/09 09:15:30;;;;;;;;;;;;;;;22.33;55.98;101269.34;5125276;27;1008;-39
2021/09/09 09:17:56;;;;;;;;;;;;;;;25.28;46.59;101267.53;5136358;27;1257;-39
2021/09/09 09:20:21;;;;;;;;;;;;;;;23.27;50.56;101266.28;5137482;27;743;-40
2021/09/09 09:22:47;;;;;;;;;;;;;;;23.29;53.38;101265.13;5137170;27;1600;-39
2021/09/09 09:25:12;;;;;;;;;;;;;;;25.63;45.58;101259.53;5137842;27;747;-39
2021/09/09 09:27:47;;;;;;;;;;;;;;;22.23;53.68;101250.56;5137599;27;786;-39
2021/09/09 09:30:13;;;;;;;;;;;;;;;24.72;48.51;101249.78;5121008;27;2289;-40
2021/09/09 09:32:45;;;;;;;;;;;;;;;22.85;51.16;101244.16;5116572;28;846;-40
2021/09/09 09:35:12;;;;;;;;;;;;;;;23.85;51.13;101241.13;5116938;28;798;-39
2021/09/09 09:37:48;;;;;;;;;;;;;;;25.86;44.95;101250.91;5116707;28;762;-40
2021/09/09 09:40:21;;;;;;;;;;;;;;;22.26;54.99;101242.25;5116686;28;799;-39
2021/09/09 09:42:46;;;;;;;;;;;;;;;25.16;46.29;101243.56;5133581;27;794;-39
2021/09/09 09:45:12;;;;;;;;;;;;;;;22.65;51.82;101246.84;5121163;27;988;-38
2021/09/09 09:47:37;;;;;;;;;;;;;;;24.19;49.74;101239.66;5116564;28;739;-40
2021/09/09 09:50:03;;;;;;;;;;;;;;;23.66;48.24;101251.91;5116618;28;1914;-40
2021/09/09 09:52:29;;;;;;;;;;;;;;;22.92;54.46;101244.44;5114749;28;1255;-39
2021/09/09 09:54:55;;;;;;;;;;;;;;;25.42;45.98;101242.72;5117021;28;774;-39
2021/09/09 09:57:20;;;;;;;;;;;;;;;22.38;53.42;101237.63;5116467;28;670;-40
2021/09/09 09:59:45;;;;;;;;;;;;;;;24.93;46.90;101244.09;5116138;27;946;-39
2021/09/09 10:02:11;;;;;;;;;;;;;;;23.60;47.94;101242.63;5116241;28;890;-39
2021/09/09 10:04:36;;;;;;;;;;;;;;;23.06;53.43;101240.47;5117197;28;771;-39
2021/09/09 10:07:01;;;;;;;;;;;;;;;25.54;45.04;101235.22;5120500;27;913;-39
2021/09/09 10:09:27;;;;;;;;;;;;;;;22.35;53.20;101233.41;5119069;28;1976;-39
2021/09/09 10:11:52;;;;;;;;;;;;;;;24.99;46.34;101226.47;5120243;28;823;-40
2021/09/09 10:14:20;;;;;;;;;;;;;;;22.81;50.63;101227.50;5119978;27;1001;-38
2021/09/09 10:16:46;;;;;;;;;;;;;;;24.13;49.56;101228.63;5120612;28;794;-40
2021/09/09 10:19:11;;;;;;;;;;;;;;;23.99;46.81;101230.84;5120823;28;732;-39
2021/09/09 10:21:43;;;;;;;;;;;;;;;22.69;54.68;101229.47;5129423;27;1616;-38
2021/09/09 10:24:10;;;;;;;;;;;;;;;25.42;44.75;101229.25;5140822;27;795;-39
2021/09/09 10:26:35;;;;;;;;;;;;;;;22.48;51.84;101234.94;5141221;27;845;-40
2021/09/09 10:29:00;;;;;;;;;;;;;;;24.74;47.27;101236.16;5138755;27;1964;-39
2021/09/09 10:31:35;;;;;;;;;;;;;;;22.74;50.06;101226.38;5141034;27;755;-40
2021/09/09 10:34:01;;;;;;;;;;;;;;;23.71;50.43;101226.31;5140971;27;754;-40
2021/09/09 10:36:45;;;;;;;;;;;;;;;24.87;44.88;101233.94;5138955;27;1234;-40
2021/09/09 10:39:10;;;;;;;;;;;;;;;23.27;51.99;101232.25;5140781;27;762;-39
2021/09/09 10:41:35;;;;;;;;;;;;;;;25.49;44.90;101228.63;5141209;27;731;-39
2021/09/09 10:44:04;;;;;;;;;;;;;;;22.50;53.37;101224.94;5133965;27;960;-40
2021/09/09 10:46:31;;;;;;;;;;;;;;;25.11;45.60;101224.34;5120496;28;732;-40
2021/09/09 10:49:25;;;;;;;;;;;;;;;22.83;50.14;101228.22;5118026;28;1906;-40
2021/09/09 10:52:06;;;;;;;;;;;;;;;24.40;47.80;101218.88;5110049;28;1461;-38
2021/09/09 10:54:32;;;;;;;;;;;;;;;23.05;49.49;101217.31;5119176;28;716;-40
2021/09/09 10:57:14;;;;;;;;;;;;;;;24.02;49.38;101211.75;5119988;28;752;-39
2021/09/09 10:59:46;;;;;;;;;;;;;;;23.71;47.52;101206.66;5129533;27;1020;-39
2021/09/09 11:02:11;;;;;;;;;;;;;;;23.14;52.35;101200.34;5140179;27;831;-38
2021/09/09 11:04:37;;;;;;;;;;;;;;;25.54;44.36;101200.19;5140033;27;806;-40
2021/09/09 11:07:03;;;;;;;;;;;;;;;22.26;52.19;101199.38;5140171;27;855;-40
2021/09/09 11:09:28;;;;;;;;;;;;;;;24.84;46.71;101212.69;5138696;27;1967;-39
2021/09/09 11:11:57;;;;;;;;;;;;;;;22.60;50.29;101204.38;5140075;27;791;-39
2021/09/09 11:14:23;;;;;;;;;;;;;;;24.31;48.54;101199.97;5130548;27;1004;-39
2021/09/09 11:16:49;;;;;;;;;;;;;;;23.78;47.45;101197.03;5118701;28;826;-39
2021/09/09 11:19:17;;;;;;;;;;;;;;;23.14;52.16;101199.50;5119503;27;778;-40
2021/09/09 11:21:42;;;;;;;;;;;;;;;25.57;44.66;101193.66;5128115;27;1590;-39
2021/09/09 11:24:08;;;;;;;;;;;;;;;22.43;53.71;101184.44;5139782;27;778;-39
2021/09/09 11:26:34;;;;;;;;;;;;;;;25.09;45.67;101182.47;5139816;27;735;-39
2021/09/09 11:28:59;;;;;;;;;;;;;;;22.35;51.63;101179.78;5133258;27;1969;-40
2021/09/09 11:31:25;;;;;;;;;;;;;;;23.83;50.26;101178.63;5119362;28;790;-40
2021/09/09 11:33:54;;;;;;;;;;;;;;;23.96;46.64;101167.50;5118710;28;897;-40
2021/09/09 11:36:20;;;;;;;;;;;;;;;22.39;55.00;101162.41;5118633;28;834;-39
2021/09/09 11:38:45;;;;;;;;;;;;;;;25.24;45.13;101162.00;5119108;28;1504;-40
2021/09/09 11:41:20;;;;;;;;;;;;;;;26.25;43.25;101160.50;5119101;28;806;-39
2021/09/09 11:43:49;;;;;;;;;;;;;;;22.42;52.35;101155.09;5118307;27;958;-40
2021/09/09 11:46:21;;;;;;;;;;;;;;;24.89;46.50;101159.25;5118969;28;747;-39
2021/09/09 11:48:51;;;;;;;;;;;;;;;26.07;44.21;101156.09;5118156;27;1983;-41
2021/09/09 11:51:27;;;;;;;;;;;;;;;26.75;41.54;101153.28;5118988;28;763;-40
2021/09/09 11:53:53;;;;;;;;;;;;;;;22.53;51.82;101154.09;5118509;28;764;-40
2021/09/09 11:56:22;;;;;;;;;;;;;;;24.38;48.71;101145.56;5118595;28;767;-40
2021/09/09 11:58:48;;;;;;;;;;;;;;;25.79;43.49;101146.44;5117816;27;1483;-41
2021/09/09 12:01:13;;;;;;;;;;;;;;;22.40;53.46;101139.16;5118661;28;790;-39
2021/09/09 12:03:38;;;;;;;;;;;;;;;25.09;46.28;101147.47;5118558;28;794;-40
2021/09/09 12:06:04;;;;;;;;;;;;;;;22.87;51.12;101151.81;5118410;28;767;-40
2021/09/09 12:08:34;;;;;;;;;;;;;;;24.30;49.21;101149.03;5118127;28;1913;-40
2021/09/09 12:11:06;;;;;;;;;;;;;;;24.30;46.38;101139.16;5118895;28;827;-40
2021/09/09 12:13:33;;;;;;;;;;;;;;;22.69;55.32;101149.03;5117517;27;949;-40
2021/09/09 12:16:17;;;;;;;;;;;;;;;25.41;45.72;101148.63;5118427;28;779;-41
2021/09/09 12:18:43;;;;;;;;;;;;;;;22.08;53.61;101143.78;5118487;28;755;-40
2021/09/09 12:21:18;;;;;;;;;;;;;;;24.53;49.19;101144.03;5123510;27;1581;-42
2021/09/09 12:23:56;;;;;;;;;;;;;;;23.11;51.61;101142.44;5138604;27;737;-41
2021/09/09 12:26:22;;;;;;;;;;;;;;;23.93;51.90;101145.47;5138835;27;792;-41
2021/09/09 12:28:47;;;;;;;;;;;;;;;24.70;46.37;101139.63;5132381;27;1964;-40
2021/09/09 12:31:12;;;;;;;;;;;;;;;22.65;56.73;101139.59;5118244;28;815;-41
2021/09/09 12:33:39;;;;;;;;;;;;;;;25.29;47.04;101140.00;5117552;28;751;-40
2021/09/09 12:36:18;;;;;;;;;;;;;;;22.11;54.37;101131.94;5117747;28;810;-40
2021/09/09 12:38:46;;;;;;;;;;;;;;;24.79;48.61;101121.69;5118080;28;828;-41
2021/09/09 12:41:18;;;;;;;;;;;;;;;22.63;52.22;101126.31;5117808;28;799;-39
2021/09/09 12:43:50;;;;;;;;;;;;;;;23.95;51.47;101116.59;5116783;27;1191;-38
2021/09/09 12:46:34;;;;;;;;;;;;;;;23.50;49.18;101119.16;5117575;28;876;-40
2021/09/09 12:49:05;;;;;;;;;;;;;;;23.66;52.36;101114.94;5117360;28;1970;-40
2021/09/09 12:51:30;;;;;;;;;;;;;;;25.59;45.31;101120.75;5117811;28;808;-39